createdAt,value
2022-11-16T00:02:33.962Z,14.30
2022-11-16T00:06:35.107Z,14.00
2022-11-16T00:10:36.072Z,14.20
2022-11-16T00:14:37.060Z,14.10
2022-11-16T00:18:38.134Z,13.40
2022-11-16T00:22:39.014Z,13.70
2022-11-16T00:26:40.935Z,13.50
2022-11-16T00:30:41.965Z,13.30
2022-11-16T00:34:43.166Z,13.40
2022-11-16T00:38:47.526Z,13.10
2022-11-16T00:42:48.667Z,12.90
2022-11-16T00:46:49.818Z,12.50
2022-11-16T00:50:51.139Z,12.50
2022-11-16T00:54:52.056Z,12.80
2022-11-16T00:58:52.913Z,12.90
2022-11-16T01:02:54.006Z,12.00
2022-11-16T01:06:54.971Z,12.50
2022-11-16T01:10:57.913Z,12.50
2022-11-16T01:14:59.202Z,12.80
2022-11-16T01:19:00.541Z,12.60
2022-11-16T01:23:01.485Z,12.80
2022-11-16T01:27:02.341Z,12.90
2022-11-16T01:31:03.334Z,12.30
2022-11-16T01:35:05.275Z,12.80
2022-11-16T01:39:06.299Z,12.90
2022-11-16T01:43:18.771Z,12.70
2022-11-16T01:47:19.866Z,12.20
2022-11-16T01:51:21.942Z,12.10
2022-11-16T01:55:23.460Z,12.00
2022-11-16T01:59:24.951Z,12.30
2022-11-16T02:03:26.034Z,12.60
2022-11-16T02:08:04.502Z,12.40
2022-11-16T02:12:30.353Z,12.80
2022-11-16T02:16:35.266Z,12.60
2022-11-16T02:21:05.391Z,12.50
2022-11-16T02:25:16.629Z,12.50
2022-11-16T02:29:39.492Z,12.80
2022-11-16T02:33:41.840Z,12.40
2022-11-16T02:37:46.843Z,12.90
2022-11-16T02:41:50.354Z,13.00
2022-11-16T02:45:55.163Z,12.70
2022-11-16T02:50:00.069Z,11.90
2022-11-16T02:54:12.188Z,12.20
2022-11-16T02:58:16.148Z,12.50
2022-11-16T03:02:37.970Z,12.90
2022-11-16T03:06:41.139Z,12.20
2022-11-16T03:11:04.417Z,12.80
2022-11-16T03:15:09.379Z,12.50
2022-11-16T03:19:13.926Z,12.40
2022-11-16T03:23:14.992Z,12.40
2022-11-16T03:27:36.638Z,12.40
2022-11-16T03:31:41.446Z,12.10
2022-11-16T03:35:52.418Z,12.30
2022-11-16T03:39:55.468Z,12.30
2022-11-16T03:43:58.548Z,13.10
2022-11-16T03:47:59.947Z,12.70
2022-11-16T03:52:01.102Z,13.00
2022-11-16T03:56:02.550Z,13.10
2022-11-16T04:00:05.859Z,13.30
2022-11-16T04:04:06.829Z,12.70
2022-11-16T04:08:34.869Z,12.90
2022-11-16T04:12:57.401Z,12.80
2022-11-16T04:17:16.942Z,13.10
2022-11-16T04:21:40.012Z,12.50
2022-11-16T04:25:43.221Z,12.30
2022-11-16T04:29:44.638Z,12.50
2022-11-16T04:34:04.882Z,12.40
2022-11-16T04:38:05.833Z,12.40
2022-11-16T04:42:15.125Z,12.90
2022-11-16T04:46:35.207Z,12.70
2022-11-16T04:50:38.523Z,13.00
2022-11-16T04:54:39.448Z,12.70
2022-11-16T04:58:40.432Z,12.80
2022-11-16T05:02:41.709Z,12.80
2022-11-16T05:06:43.022Z,12.40
2022-11-16T05:10:43.918Z,13.20
2022-11-16T05:14:45.570Z,13.00
2022-11-16T05:18:51.378Z,13.20
2022-11-16T05:22:54.425Z,13.40
2022-11-16T05:26:55.423Z,13.80
2022-11-16T05:30:56.711Z,13.70
2022-11-16T05:34:57.869Z,13.60
2022-11-16T05:38:59.060Z,13.50
2022-11-16T05:43:00.165Z,13.40
2022-11-16T05:47:01.504Z,13.60
2022-11-16T05:51:02.774Z,13.50
2022-11-16T05:55:04.780Z,13.40
2022-11-16T05:59:06.374Z,13.30
2022-11-16T06:03:07.666Z,13.10
2022-11-16T06:07:08.783Z,13.60
2022-11-16T06:11:11.962Z,13.90
2022-11-16T06:15:13.201Z,13.50
2022-11-16T06:19:14.177Z,13.70
2022-11-16T06:23:15.285Z,14.00
2022-11-16T06:27:16.361Z,14.00
2022-11-16T06:31:17.521Z,13.70
2022-11-16T06:35:18.458Z,13.60
2022-11-16T06:39:19.464Z,13.50
2022-11-16T06:43:21.369Z,13.80
2022-11-16T06:47:22.469Z,13.60
2022-11-16T06:51:23.917Z,14.10
2022-11-16T06:55:25.139Z,14.00
2022-11-16T06:59:26.380Z,14.50
2022-11-16T07:03:27.356Z,14.80
2022-11-16T07:07:28.536Z,14.70
2022-11-16T07:11:29.689Z,14.80
2022-11-16T07:15:31.746Z,14.70
2022-11-16T07:19:32.855Z,14.40
2022-11-16T07:23:34.715Z,14.60
2022-11-16T07:27:35.762Z,14.70
2022-11-16T07:31:37.437Z,14.30
2022-11-16T07:35:38.464Z,14.40
2022-11-16T07:39:39.425Z,14.30
2022-11-16T07:43:40.678Z,14.10
2022-11-16T07:47:41.798Z,14.30
2022-11-16T07:51:43.163Z,13.20
2022-11-16T07:55:46.148Z,13.00
2022-11-16T07:59:47.281Z,14.30
2022-11-16T08:03:52.021Z,14.30
2022-11-16T08:07:53.346Z,14.50
2022-11-16T08:11:54.490Z,14.70
2022-11-16T08:16:01.547Z,14.10
2022-11-16T08:20:02.761Z,12.30
2022-11-16T08:24:04.246Z,13.10
2022-11-16T08:28:05.185Z,12.70
2022-11-16T08:32:06.333Z,13.50
2022-11-16T08:36:14.216Z,13.20
2022-11-16T08:40:14.674Z,12.50
2022-11-16T08:44:16.144Z,13.20
2022-11-16T08:48:17.222Z,12.60
2022-11-16T08:52:18.576Z,13.30
2022-11-16T08:56:19.965Z,13.80
2022-11-16T09:00:21.393Z,13.70
2022-11-16T09:04:23.757Z,13.30
2022-11-16T09:08:24.850Z,12.20
2022-11-16T09:12:25.824Z,13.00
2022-11-16T09:16:27.307Z,12.50
2022-11-16T09:20:28.807Z,12.80
2022-11-16T09:24:29.873Z,12.90
2022-11-16T09:28:31.288Z,13.40
2022-11-16T09:32:32.597Z,12.90
2022-11-16T09:36:34.555Z,13.30
2022-11-16T09:40:41.377Z,13.50
2022-11-16T09:45:03.956Z,13.50
2022-11-16T09:49:17.645Z,13.10
2022-11-16T09:53:21.643Z,12.50
2022-11-16T09:57:26.637Z,13.10
2022-11-16T10:01:34.627Z,12.50
2022-11-16T10:05:42.298Z,12.80
2022-11-16T10:09:46.165Z,13.60
2022-11-16T10:14:03.706Z,13.80
2022-11-16T10:18:20.715Z,13.60
2022-11-16T10:22:26.387Z,13.50
2022-11-16T10:26:40.362Z,13.40
2022-11-16T10:31:06.170Z,14.30
2022-11-16T10:35:13.843Z,13.60
2022-11-16T10:39:18.633Z,13.80
2022-11-16T10:43:29.218Z,14.00
2022-11-16T10:47:52.208Z,14.60
2022-11-16T10:51:53.315Z,15.20
2022-11-16T10:56:11.169Z,15.30
2022-11-16T11:00:19.621Z,14.90
2022-11-16T11:04:24.947Z,16.00
2022-11-16T11:08:29.944Z,16.90
2022-11-16T11:12:39.786Z,17.30
2022-11-16T11:16:41.056Z,16.40
2022-11-16T11:20:45.764Z,15.60
2022-11-16T11:24:48.168Z,14.90
2022-11-16T11:28:49.621Z,14.80
2022-11-16T11:32:52.285Z,15.00
2022-11-16T11:36:57.087Z,15.30
2022-11-16T11:41:04.453Z,15.10
2022-11-16T11:45:08.580Z,14.30
2022-11-16T11:49:20.045Z,14.30
2022-11-16T11:53:37.361Z,14.70
2022-11-16T11:57:42.264Z,14.10
2022-11-16T12:02:02.535Z,13.60
2022-11-16T12:06:29.680Z,13.70
2022-11-16T12:10:58.770Z,14.10
2022-11-16T12:15:24.330Z,14.40
2022-11-16T12:19:52.396Z,13.80
2022-11-16T12:24:29.296Z,13.70
2022-11-16T12:28:53.733Z,14.20
2022-11-16T12:33:01.498Z,14.10
2022-11-16T12:37:12.426Z,14.40
2022-11-16T12:41:38.337Z,13.30
2022-11-16T12:46:01.200Z,14.20
2022-11-16T12:50:17.772Z,14.60
2022-11-16T12:54:27.948Z,14.20
2022-11-16T12:58:58.499Z,13.50
2022-11-16T13:03:15.601Z,14.40
2022-11-16T13:07:23.303Z,14.80
2022-11-16T13:11:36.830Z,14.80
2022-11-16T13:15:39.826Z,15.00
2022-11-16T13:19:43.835Z,15.20
2022-11-16T13:24:00.876Z,14.00
2022-11-16T13:28:22.430Z,14.40
2022-11-16T13:32:36.023Z,13.80
2022-11-16T13:36:46.950Z,13.90
2022-11-16T13:40:48.113Z,14.80
2022-11-16T13:44:51.672Z,15.20
2022-11-16T13:48:53.063Z,15.40
2022-11-16T13:57:03.956Z,15.20
2022-11-16T14:01:10.139Z,15.00
2022-11-16T14:05:17.659Z,15.10
2022-11-16T14:09:44.977Z,15.00
2022-11-16T14:13:46.724Z,15.30
2022-11-16T14:18:02.816Z,15.10
2022-11-16T14:22:07.590Z,13.90
2022-11-16T14:26:34.132Z,14.70
2022-11-16T14:30:45.167Z,15.00
2022-11-16T14:34:49.892Z,14.50
2022-11-16T14:38:50.988Z,14.40
2022-11-16T14:43:20.966Z,15.10
2022-11-16T14:47:27.340Z,15.00
2022-11-16T14:51:34.862Z,14.80
2022-11-16T14:55:41.892Z,14.40
2022-11-16T14:59:42.848Z,14.40
2022-11-16T15:03:56.836Z,14.60
2022-11-16T15:07:59.424Z,14.20
2022-11-16T15:12:21.936Z,14.90
2022-11-16T15:16:23.348Z,13.70
2022-11-16T15:20:27.195Z,14.20
2022-11-16T15:24:32.195Z,14.40
2022-11-16T15:28:33.508Z,14.30
2022-11-16T15:32:36.348Z,14.40
2022-11-16T15:36:39.352Z,14.70
2022-11-16T15:40:43.647Z,14.00
2022-11-16T15:44:45.179Z,13.50
2022-11-16T15:48:47.066Z,13.50
2022-11-16T15:52:54.117Z,13.30
2022-11-16T15:56:58.274Z,12.90
2022-11-16T16:00:59.392Z,13.50
2022-11-16T16:05:00.344Z,13.70
2022-11-16T16:09:06.061Z,13.70
2022-11-16T16:13:13.782Z,12.70
2022-11-16T16:17:27.036Z,13.50
2022-11-16T16:21:43.356Z,13.20
2022-11-16T16:25:50.149Z,12.10
2022-11-16T16:29:49.637Z,11.90
2022-11-16T16:33:50.760Z,13.40
2022-11-16T16:37:58.177Z,13.80
2022-11-16T16:42:00.072Z,12.80
2022-11-16T16:46:03.216Z,12.80
2022-11-16T16:50:04.664Z,13.20
2022-11-16T16:54:05.999Z,12.80
2022-11-16T16:58:09.066Z,13.20
2022-11-16T17:02:11.949Z,12.80
2022-11-16T17:06:13.817Z,12.50
2022-11-16T17:10:16.101Z,11.00
2022-11-16T17:14:19.001Z,12.40
2022-11-16T17:18:21.190Z,12.30
2022-11-16T17:22:22.620Z,12.60
2022-11-16T17:26:26.943Z,12.60
2022-11-16T17:30:30.433Z,13.00
2022-11-16T17:34:31.539Z,13.40
2022-11-16T17:38:36.205Z,12.70
2022-11-16T17:42:37.214Z,12.80
2022-11-16T17:46:38.758Z,13.30
2022-11-16T17:50:43.608Z,13.40
2022-11-16T17:54:44.623Z,13.40
2022-11-16T17:58:46.337Z,13.00
2022-11-16T18:02:47.304Z,13.30
2022-11-16T18:06:48.402Z,13.20
2022-11-16T18:10:49.693Z,13.30
2022-11-16T18:15:13.536Z,12.30
2022-11-16T18:19:03.585Z,13.00
2022-11-16T18:23:05.098Z,13.80
2022-11-16T18:27:06.517Z,13.80
2022-11-16T18:31:10.956Z,13.70
2022-11-16T18:35:12.324Z,13.80
2022-11-16T18:39:13.332Z,13.80
2022-11-16T18:43:14.680Z,13.10
2022-11-16T18:47:15.921Z,13.00
2022-11-16T18:51:18.303Z,12.40
2022-11-16T18:55:19.648Z,12.30
2022-11-16T18:59:20.741Z,12.40
2022-11-16T19:03:22.191Z,12.70
2022-11-16T19:07:23.486Z,12.90
2022-11-16T19:11:26.235Z,13.20
2022-11-16T19:15:27.341Z,12.80
2022-11-16T19:19:29.382Z,13.20
2022-11-16T19:23:37.642Z,13.20
2022-11-16T19:27:39.096Z,13.80
2022-11-16T19:31:40.349Z,13.60
2022-11-16T19:35:41.315Z,13.30
2022-11-16T19:39:42.477Z,13.00
2022-11-16T19:43:43.549Z,13.40
2022-11-16T19:47:44.567Z,13.30
2022-11-16T19:51:45.686Z,12.90
2022-11-16T19:55:54.849Z,13.30
2022-11-16T19:59:55.903Z,12.60
2022-11-16T20:03:59.256Z,13.10
2022-11-16T20:08:00.248Z,12.80
2022-11-16T20:12:01.621Z,13.20
2022-11-16T20:16:02.850Z,13.20
2022-11-16T20:20:04.528Z,13.30
2022-11-16T20:24:08.313Z,13.20
2022-11-16T20:28:09.681Z,12.80
2022-11-16T20:32:10.763Z,12.90
2022-11-16T20:36:11.678Z,12.60
2022-11-16T20:40:13.483Z,12.10
2022-11-16T20:44:23.000Z,12.30
2022-11-16T20:48:24.010Z,12.70
2022-11-16T20:52:25.206Z,13.00
2022-11-16T20:56:26.845Z,12.80
2022-11-16T21:00:27.943Z,13.30
2022-11-16T21:04:29.021Z,13.10
2022-11-16T21:08:30.300Z,12.80
2022-11-16T21:12:42.805Z,12.10
2022-11-16T21:16:42.626Z,12.40
2022-11-16T21:20:43.642Z,12.50
2022-11-16T21:24:44.640Z,11.80
2022-11-16T21:28:45.885Z,12.40
2022-11-16T21:32:46.955Z,12.30
2022-11-16T21:36:48.160Z,12.40
2022-11-16T21:40:49.952Z,12.50
2022-11-16T21:44:50.968Z,12.30
2022-11-16T21:48:55.051Z,11.70
2022-11-16T21:52:57.752Z,12.50
2022-11-16T21:56:58.880Z,12.70
2022-11-16T22:01:01.599Z,12.80
2022-11-16T22:05:21.586Z,12.70
2022-11-16T22:09:22.980Z,12.80
2022-11-16T22:13:23.931Z,13.00
2022-11-16T22:17:25.253Z,13.00
2022-11-16T22:21:26.235Z,13.00
2022-11-16T22:25:27.319Z,13.00
2022-11-16T22:29:28.422Z,12.60
2022-11-16T22:33:30.355Z,12.40
2022-11-16T22:37:31.343Z,12.30
2022-11-16T22:41:32.460Z,12.30
2022-11-16T22:45:33.576Z,12.20
2022-11-16T22:49:34.511Z,12.40
2022-11-16T22:53:35.989Z,11.70
2022-11-16T22:57:37.408Z,12.30
2022-11-16T23:01:38.739Z,12.40
2022-11-16T23:05:39.671Z,12.60
2022-11-16T23:09:40.574Z,12.40
2022-11-16T23:14:01.227Z,12.70
2022-11-16T23:18:02.363Z,11.30
2022-11-16T23:22:22.915Z,11.60
2022-11-16T23:26:43.309Z,10.90
2022-11-16T23:30:44.674Z,10.70
2022-11-16T23:34:45.664Z,11.60
2022-11-16T23:38:46.780Z,11.90
2022-11-16T23:43:06.298Z,12.30
2022-11-16T23:47:07.351Z,12.40
2022-11-16T23:51:08.324Z,12.40
2022-11-16T23:55:09.433Z,12.50
2022-11-16T23:59:10.381Z,11.10
